Terminal Aerodrome Forecast
Issued by NWS

Home | Current Version | Previous Version | Text Only | Print | Product List | Glossary On
Versions: 1 2 3 4 5 6 7 8 9 10 11 12 13 14 15 16 17 18 19 20 21 22 23 24 25
000
FTUS43 KDLH 212300
TAFBRD
TAF
KBRD 212320Z 2200/2224 36007KT P6SM SCT045
     FM220300 27003KT P6SM SKC
      TEMPO 2209/2213 1SM BR SCT003
     FM221600 25009KT P6SM FEW026
     FM222100 22007KT P6SM SKC=

USA.gov is the U.S. government's official web portal to all federal, state and local government web resources and services.